x

9410840 - Santa Monica Pier (icac1) Weather Station

7:54 - Fri 20th Jan 2017 All times are PST. -8 hours from GMT.

  • Wind
    29mph, 33mph gusts
  • Sea Temp 58°f
  • Air Temp 56°f
  • Sea Pressure 999.5mb
  • 9410840 - Santa Monica Pier
  • 9410840 - Santa Monica Pier

More Historic Weather Station data

Upgrade to MSW Pro to gain access to the past 30 days of data for over 8000 Wavebouys and Weather Stations around the globe.

Join Pro

Comparision Forecast

View Surf forecast
   
ven. 01/20 7:54 29 33 mph 999.5mb 58f 56f
7:48 29 33 mph - - -
7:42 29 34 mph 999.4mb 58f 56f
7:36 26 33 mph 999.3mb 58f 56f
7:30 29 34 mph 999.2mb 58f 56f
7:24 30 37 mph 999.3mb 58f 56f
7:18 31 36 mph 999.2mb 58f 56f
7:12 28 32 mph 999.3mb 58f 56f
7:06 28 31 mph 999.2mb 58f 56f
7:00 29 34 mph - - -
6:54 29 34 mph 999.2mb 58f 56f
6:48 30 37 mph - - -
6:42 31 37 mph 999mb 58f 55f
6:36 31 36 mph 998.8mb 58f 55f
6:30 31 36 mph - - -
6:24 30 37 mph 998.7mb 58f 56f
6:18 30 37 mph - - -
6:12 29 33 mph 998.4mb 58f 55f
6:06 30 36 mph 998.3mb 58f 55f
6:00 32 38 mph 998.3mb 58f -
5:54 32 38 mph 998.2mb 58f 55f
5:48 34 39 mph - - -
5:42 33 38 mph 998.1mb 58f 55f
5:36 28 36 mph 998.1mb 58f 55f
5:30 31 36 mph 998mb 58f 55f
5:24 31 37 mph 998mb 58f 55f
5:18 34 38 mph 998mb 58f 55f
5:12 32 38 mph 997.9mb 58f 55f
5:06 32 37 mph 997.8mb 58f 55f
5:00 30 38 mph 997.7mb 58f 56f
4:54 31 38 mph 997.8mb 58f 56f
4:48 33 38 mph - - -
4:42 29 33 mph - 58f 56f
4:36 25 30 mph - 58f 56f
4:30 25 30 mph 997.7mb 58f -
4:24 30 33 mph 997.7mb 58f 56f
4:18 30 33 mph 997.5mb 58f 56f
4:12 30 34 mph 997.5mb 58f 56f
4:06 31 36 mph 997.5mb 58f 56f
4:00 29 36 mph 997.4mb 58f 56f
3:54 30 34 mph 997.1mb 58f 56f
3:48 29 33 mph - - -
3:42 26 32 mph 997.3mb 58f 57f
3:36 29 33 mph 997.3mb 58f 56f
3:30 31 34 mph 997.4mb 58f 57f
3:24 30 37 mph 997.4mb 58f 57f
3:18 32 37 mph - - -
3:12 29 36 mph 997.3mb 58f 58f
3:06 28 32 mph 997.2mb 58f 58f
3:00 25 30 mph 997.2mb 58f 58f
2:54 25 29 mph 997mb 58f 58f
2:48 24 28 mph 996.9mb - -
2:42 24 29 mph 996.9mb 58f 58f
2:36 22 28 mph 996.8mb 58f 58f
2:30 25 29 mph 996.7mb 58f 58f
2:24 25 29 mph 996.8mb 58f 58f
2:18 26 32 mph 996.7mb 58f 58f
2:12 28 31 mph 996.8mb 58f 58f
2:06 25 30 mph 996.8mb 58f 57f
2:00 30 37 mph 997mb 58f -
1:54 28 31 mph 997.3mb 58f 57f
1:48 23 28 mph - - -
1:42 22 24 mph 997.4mb 58f 56f
1:36 22 25 mph 997.3mb 58f 57f
1:30 21 24 mph 997.3mb 58f 57f
1:24 21 28 mph 997.4mb 58f 57f
1:18 28 34 mph 997.4mb 58f 57f
1:12 18 24 mph 997.4mb 58f 57f
1:06 11 14 mph 997.6mb 58f 56f
1:00 10 14 mph 997.7mb 58f 55f
12:54 14 17 mph 997.8mb 58f 55f
12:48 15 17 mph 998mb 58f 54f
12:42 14 18 mph 998.3mb 58f 54f
12:36 14 20 mph 998.5mb 58f 54f
12:30 15 21 mph 998.7mb 58f 54f
12:24 18 24 mph 998.9mb 58f 54f
12:18 21 24 mph 999.1mb 58f 53f
12:12 18 29 mph 999mb 58f 55f
12:06 29 37 mph 999.5mb 58f 56f
12:00 18 29 mph 999.5mb 58f 53f
11:54 22 26 mph 999.1mb 58f 53f
11:48 20 25 mph 999mb 58f 52f
11:42 21 25 mph 999.4mb 58f 52f
11:36 20 29 mph 999.9mb 58f 52f
11:30 26 31 mph 999.9mb 58f 53f
11:24 29 34 mph 1000.1mb 58f 53f
11:18 28 36 mph 1000.5mb 58f 53f
11:12 28 37 mph 1000.9mb 58f 53f
11:06 33 38 mph 1001.4mb 58f 53f
11:00 29 36 mph 1001.6mb 58f 54f
10:54 25 32 mph 1001.9mb 58f 54f
10:48 30 33 mph 1002mb 58f 55f
10:42 25 29 mph 1002.2mb 58f 55f
10:36 18 23 mph 1002.3mb 58f 54f
10:30 16 25 mph 1002.5mb 58f 54f
10:24 15 22 mph 1003mb 58f 54f
10:18 16 22 mph 1003.1mb 58f 54f
10:12 15 21 mph 1003.3mb 58f 54f
10:06 15 22 mph 1003.7mb 58f 54f
10:00 20 23 mph 1004.1mb 58f 54f
9:54 16 20 mph 1004.1mb 58f 54f
9:48 15 20 mph 1004.2mb 58f 54f
9:42 14 24 mph 1004.3mb 58f 54f
9:36 21 25 mph 1004.2mb 58f 54f
9:30 24 28 mph 1004.6mb 58f 54f
9:24 23 26 mph 1004.9mb 58f 54f
9:18 22 24 mph 1004.7mb 58f 54f
9:12 21 24 mph 1005.2mb 58f 54f
9:06 22 23 mph 1005.3mb 58f 54f
9:00 22 24 mph 1005.4mb 58f 54f
8:54 21 23 mph 1005.6mb 58f 54f
8:48 20 21 mph 1005.9mb 58f 55f
8:42 20 22 mph 1005.8mb 58f 55f
8:36 18 22 mph 1005.7mb 58f 55f
8:30 16 18 mph 1005.8mb 58f 55f
8:24 17 21 mph 1006.3mb 58f 55f
8:18 20 22 mph 1006.5mb 58f 55f
8:12 20 21 mph 1006.2mb 58f 54f
8:06 18 21 mph 1006.1mb 58f 53f
8:00 1 5 mph 1006.3mb 58f 52f
7:54 1 7 mph 1006.3mb 58f 52f
7:48 7 9 mph 1006.3mb 58f 52f
7:42 6 8 mph 1006.7mb 58f 52f
7:36 7 11 mph 1006.6mb 58f 52f
7:30 9 15 mph 1006.7mb 58f 52f
7:24 14 15 mph 1006.9mb 58f 52f
7:18 13 16 mph 1007.1mb 58f 52f
7:12 9 11 mph 1007.4mb 58f 52f
7:06 7 11 mph 1007.4mb 58f 52f
7:00 10 13 mph 1007.6mb 59f 52f
6:54 11 13 mph 1007.8mb 59f 52f
6:48 8 10 mph 1008mb 59f 52f
6:42 9 11 mph 1007.8mb 59f 52f
6:36 9 11 mph 1007.8mb 59f 52f
6:30 9 10 mph 1008mb 59f 52f
6:24 8 11 mph 1007.8mb 59f 53f
6:18 8 11 mph 1007.8mb 59f 52f
6:12 8 9 mph 1007.6mb 59f 52f
6:06 6 7 mph 1007.9mb 59f 53f
6:00 7
mph
1008.1mb 59f 53f
5:54 3 6 mph 1008.4mb 59f 53f
5:48 3 5 mph 1008.4mb 59f 52f
5:42 5 6 mph 1008.3mb 59f 52f
5:36 5 8 mph 1008.4mb 59f 52f
5:30 5 7 mph 1008.6mb 59f 52f
5:24 7 9 mph 1009.1mb 59f 52f
5:18 3 6 mph 1009.1mb 59f 52f
5:12 3 6 mph 1009mb 59f 52f
5:06 1 3 mph 1009.1mb 59f 52f
5:00 2 5 mph 1008.9mb 59f 52f
4:54 6 8 mph 1008.8mb 59f 53f
4:48 5 6 mph 1008.8mb 59f 53f
4:42 1 3 mph 1009mb 59f 53f
4:36 2 7 mph 1008.8mb 59f 52f
4:30 6 7 mph 1008.9mb 59f 52f
4:24 6 7 mph 1009mb 59f 53f
4:18 5 6 mph 1009.3mb 59f 53f
4:12 5 6 mph 1009.6mb 59f 53f
4:06 2
mph
1009.7mb 59f 53f
4:00 1 2 mph 1009.6mb 59f 53f
3:54  -  2 mph 1009.4mb 59f 53f
3:48  -  2 mph 1009.3mb 59f 53f
3:42 1 5 mph 1009.5mb 59f 53f
3:36 2 5 mph 1009.4mb 59f 53f
3:30 2 5 mph 1009.5mb 59f 53f
3:24 2 5 mph 1009.5mb 59f 53f
3:18 3 5 mph 1009.5mb 59f 53f
3:12 3 6 mph 1009.6mb 59f 53f
3:06 5 6 mph 1009.5mb 59f 53f
3:00 5 6 mph 1009.5mb 59f 53f
2:54 5
mph
1009.6mb 59f 53f
2:48 3 6 mph 1009.7mb 59f 53f
2:42 5 7 mph 1009.8mb 59f 53f
2:36 7 8 mph 1009.9mb 59f 53f
2:30 6 7 mph 1010.1mb 59f 53f
2:24 6 7 mph 1010.3mb 59f 53f
2:18 6 7 mph 1010.5mb 59f 53f
2:12 5 6 mph 1010.6mb 59f 53f
2:06 5
mph
1010.8mb 59f 53f
2:00 5
mph
1010.9mb 59f 53f
1:54 3 6 mph 1011.1mb 59f 53f
1:48 6
mph
1011.1mb 59f 53f
1:42 2 5 mph 1011.2mb 59f 54f
1:36 1 3 mph 1011.2mb 59f 54f
1:30 1 3 mph 1011.4mb 59f 54f
1:24 2 5 mph 1011.6mb 59f 54f
1:18 3 5 mph 1011.6mb 59f 53f
1:12 2 3 mph 1011.5mb 59f 54f
1:06 1 2 mph 1011.6mb 59f 53f
1:00 1 3 mph 1011.4mb 59f 54f
12:54 3 5 mph 1011.3mb 59f 54f
12:48 1 3 mph 1011mb 59f 54f
12:42 2 5 mph 1011.2mb 59f 54f
12:36 3 6 mph 1011.4mb 59f 54f
12:30 3 5 mph 1011.3mb 59f 54f
12:24 3 5 mph 1011.5mb 59f 55f
12:18 5 7 mph 1011.6mb 59f 55f
12:12 6
mph
1011.7mb 59f 55f
12:06 3 6 mph 1011.6mb 59f 55f
12:00 5 7 mph 1011.6mb 59f 55f
jeu. 01/19 11:54 6 8 mph 1011.6mb 59f 55f
11:48 6 10 mph 1011.6mb 59f 56f
11:42 8 9 mph 1011.5mb 59f 56f
11:36 8 9 mph 1011.5mb 59f 56f
11:30 8 9 mph 1011.5mb 59f 56f
11:24 6 10 mph 1011.4mb 59f 56f
11:18 8 9 mph 1011.4mb 59f 56f
11:12 7 10 mph 1011.5mb 59f 56f
11:06 9 15 mph 1011.8mb 59f 56f
11:00 14 16 mph 1011.9mb 59f 56f
10:54 14 17 mph 1011.9mb 59f 57f
10:48 15 17 mph 1012mb 59f 57f
10:42 14 17 mph 1012.2mb 59f 57f
10:36 15 17 mph 1012.2mb 59f 57f
10:30 16 20 mph 1012.4mb 59f 57f
10:24 17 18 mph 1012.6mb 59f 57f
10:18 16 18 mph 1012.7mb 59f 57f
10:12 15 18 mph 1012.8mb 59f 57f
10:06 16 18 mph 1012.9mb 59f 57f
10:00 16 20 mph 1012.9mb - -
9:54 17 18 mph 1012.8mb 59f 57f
9:48 17 21 mph 1012.8mb 59f 57f
9:42 20 21 mph 1012.8mb 59f -
9:36 16 18 mph 1012.8mb 59f -
9:30 14 18 mph 1012.7mb 59f 56f
9:24 20 24 mph 1012.7mb 59f 55f
9:18 8 9 mph 1012.6mb 59f 56f
9:12 7 8 mph 1012.6mb 59f 56f
9:06 8 10 mph 1012.6mb 59f 56f
9:00 10 14 mph 1012.7mb 59f 56f
8:54 11 14 mph 1012.6mb 59f 56f
8:48 14 16 mph 1012.7mb 59f 56f
8:42 16 17 mph 1012.7mb 59f 56f
8:36 17 21 mph 1012.6mb 59f 55f
8:30 18 21 mph 1012.8mb 59f 56f
8:24 17 18 mph 1012.8mb 59f 56f
8:18 16 20 mph 1012.7mb 59f 56f
8:12 18 21 mph 1012.7mb 59f 56f
8:06 18 21 mph 1012.8mb 59f 57f
8:00 18 22 mph 1012.9mb 59f 57f
7:54 21 23 mph 1012.9mb 59f 57f
7:48 16 21 mph 1012.9mb 59f 58f
7:42 16 21 mph 1012.9mb 59f 58f
7:36 20 21 mph 1012.9mb 59f 58f
7:30 16 18 mph 1012.9mb 59f 58f
7:24 16 17 mph 1012.9mb 59f 57f
7:18 14 17 mph 1012.9mb 59f 57f
7:12 14 18 mph 1012.9mb 59f 58f
7:06 14 18 mph 1012.9mb 59f 58f
7:00 16 18 mph 1012.9mb 59f 58f
6:54 16 18 mph 1012.8mb 59f 57f
6:48 14 18 mph 1012.9mb 59f 58f
6:42 17 20 mph 1013mb 59f 58f
6:36 17 21 mph 1013mb 59f 58f
6:30 17 21 mph 1013.1mb 59f 58f
6:24 16 18 mph 1013.1mb 59f 58f
6:18 17 20 mph - - -
6:12 17 18 mph 1012.9mb 59f 58f
6:06 17 20 mph 1012.9mb 59f 58f
6:00 18 21 mph 1012.9mb 59f 58f
5:54 17 21 mph 1012.9mb 59f 58f
5:48 17 21 mph - - -
5:42 16 20 mph 1013mb 59f 58f
5:36 17 21 mph 1013mb 59f 58f
5:30 17 21 mph 1013mb 59f 58f
5:24 20 22 mph 1012.9mb 59f 58f
5:18 20 22 mph 1012.7mb 59f 58f
5:12 20 22 mph 1012.7mb 59f 58f
5:06 20 23 mph 1012.6mb 59f 58f
5:00 21 22 mph 1012.6mb 59f 58f
4:54 18 22 mph 1012.6mb 59f 58f
4:48 18 21 mph - - -
4:42 16 20 mph 1012.5mb 59f 58f
4:36 17 20 mph 1012.4mb 59f 57f
4:30 17 20 mph 1012.2mb 59f 58f
4:24 18 20 mph 1012.2mb 59f 58f
4:18 16 20 mph 1012.2mb 59f 58f
4:12 16 18 mph 1012.1mb 59f 58f
4:06 15 18 mph 1012.2mb 59f 58f
4:00 15 20 mph 1012.1mb 59f 58f
3:54 17 21 mph 1012.1mb 59f 57f
3:48 17 21 mph - - -
3:42 18 23 mph 1012.2mb 59f 58f
3:36 21 22 mph 1012.2mb 59f 58f
3:30 20 24 mph 1012.2mb 59f 58f
3:24 22 23 mph 1012.1mb 59f 58f
3:18 18 22 mph - - -
3:12 22 24 mph 1012.2mb 59f 58f
3:06 20 24 mph 1012.3mb 59f 58f
3:00 22 24 mph 1012.3mb 59f -
2:54 20 23 mph 1012.4mb 59f 58f
2:48 22 24 mph - - -
2:42 22 26 mph 1012.4mb 59f 58f
2:36 22 24 mph 1012.4mb 59f 58f
2:30 21 24 mph 1012.5mb 59f 58f
2:24 21 23 mph 1012.5mb 59f 58f
2:18 21 24 mph 1012.4mb 59f 58f
2:12 23 26 mph 1012.4mb 59f 58f
2:06 23 26 mph 1012.3mb 59f 58f
2:00 22 28 mph 1012.3mb 59f -
1:54 22 26 mph 1012.3mb 59f 58f
1:48 23 26 mph - - -
1:42 22 25 mph 1012.4mb 59f 58f
1:36 20 22 mph 1012.4mb 59f 58f
1:30 20 23 mph 1012.4mb 59f 58f
1:24 20 21 mph 1012.5mb 59f 58f
1:18 17 22 mph 1012.4mb 59f 58f
1:12 22 24 mph 1012.7mb 59f 58f
1:06 22 24 mph 1012.9mb 59f 58f
1:00 22 25 mph 1013mb 59f 58f
12:54 23 25 mph 1013.1mb 59f 58f
12:48 23 26 mph 1013.2mb 59f 58f
12:42 24 28 mph 1013.3mb 59f 58f
12:36 23 28 mph 1013.3mb 59f 58f
12:30 25 28 mph 1013.3mb 59f 57f
12:24 23 28 mph 1013.3mb 59f 57f
12:18 22 24 mph 1013.3mb 59f 57f
12:12 22 24 mph 1013.4mb 59f 57f
12:06 21 23 mph 1013.4mb 59f 58f
12:00 21 25 mph 1013.5mb 59f 57f
11:54 22 25 mph 1013.6mb 59f 57f
11:48 21 25 mph 1013.8mb 59f 58f
11:42 22 24 mph 1013.9mb 59f 58f
11:36 23 25 mph 1014mb 59f 57f
11:30 23 25 mph 1014.1mb 59f 57f
11:24 20 23 mph 1014.3mb 59f 58f
11:18 21 23 mph 1014.3mb 59f 57f
11:12 21 23 mph 1014.4mb 59f 58f
11:06 21 23 mph 1014.5mb 59f 57f
11:00 21 24 mph 1014.5mb 59f 58f
10:54 18 23 mph 1014.6mb 58f 58f
10:48 22 23 mph 1014.5mb 58f 57f
10:42 18 21 mph 1014.6mb 58f 58f
10:36 15 17 mph 1014.7mb 58f 58f
10:30 16 17 mph 1014.7mb 58f 57f
10:24 14 17 mph 1014.8mb 58f 58f
10:18 15 18 mph - 58f 57f
10:12 17 20 mph - 58f 57f
10:06 16 20 mph - 58f 57f
10:00 15 18 mph 1015mb 58f 58f
9:54 14 16 mph 1015mb 58f 57f
9:48 14 16 mph 1015mb 58f 58f
9:42 13 15 mph 1015mb 58f 58f
9:36 13 14 mph 1014.9mb 58f 57f
9:30 10 14 mph 1014.9mb 58f 58f
9:24 9 11 mph 1014.9mb 58f 57f
9:18 1 5 mph 1014.8mb 58f 57f
9:12 2 7 mph 1014.7mb 58f 56f
9:06 2
mph
1014.6mb 58f 56f
9:00 2 3 mph 1014.4mb 58f 55f
8:54 3 7 mph 1014.4mb 58f 56f
8:48 6
mph
1014.4mb 58f 55f
8:42 3 6 mph 1014.3mb 58f 55f
8:36 6 8 mph 1014.3mb 58f 55f
8:30 5 7 mph 1014.2mb 58f 55f
8:24 5 9 mph 1014.1mb 58f 55f
8:18 7 11 mph 1014mb 58f 55f
8:12 9 10 mph 1014mb 58f 54f
8:06 5 10 mph 1014mb 58f 54f
8:00 5 9 mph 1013.9mb 58f 54f
7:54 6 10 mph 1013.8mb 58f 54f
7:48 8 13 mph 1013.7mb 58f 54f
7:42 10 13 mph 1013.8mb 58f 54f
7:36 9 13 mph 1013.8mb 58f 54f
7:30 8 10 mph 1013.9mb 58f 57f
7:24 1 3 mph 1013.9mb 59f 54f
7:18 3 7 mph 1013.7mb 59f 54f
7:12 6 7 mph 1013.8mb 59f 54f
7:06 2 6 mph 1013.7mb 59f 54f
7:00 3 7 mph 1013.7mb 59f 57f
6:54 8 9 mph 1013.7mb 59f 57f
6:48 8 10 mph 1013.5mb 59f 57f
6:42 9 11 mph 1013.5mb 59f 57f
6:36 8 10 mph 1013.5mb 59f 57f
6:30 5 11 mph 1013.5mb 59f 57f
6:24 9 14 mph 1013.4mb 59f 57f
6:18 14 20 mph 1013.4mb 59f 57f
6:12 17 21 mph 1013.4mb 59f 56f
6:06 18 21 mph 1013.4mb 59f 56f
6:00 17 20 mph 1013.3mb 59f 56f
5:54 17 22 mph 1013.3mb 59f 56f
5:48 13 18 mph 1013.3mb 59f 55f
5:42 11 15 mph 1013.4mb 59f 55f
5:36 11 15 mph 1013.4mb 59f 55f
5:30 14 15 mph 1013.4mb 59f 55f
5:24 14 15 mph 1013.4mb 59f 55f
5:18 7 11 mph 1013.5mb 59f 55f
5:12 10 17 mph 1013.7mb 59f 54f
5:06 9 13 mph 1013.7mb 59f 55f
5:00 7 15 mph 1013.7mb 59f 55f
4:54 13 18 mph 1013.8mb 59f 55f
4:48 16 22 mph 1013.9mb 59f 55f
4:42 14 17 mph 1014mb 59f 54f
4:36 14 18 mph 1014mb 59f 54f
4:30 15 18 mph 1014.2mb 59f 54f
4:24 10 18 mph 1014.1mb 59f 54f
4:18 15 18 mph 1014.1mb 59f 54f
4:12 10 14 mph 1014.2mb 59f 54f
4:06 7 10 mph 1014.4mb 59f 53f
4:00 9 14 mph 1014.6mb 59f 53f
3:54 9 13 mph 1014.8mb 59f 53f
3:48 7 11 mph 1015mb 59f 53f
3:42 9 13 mph 1015mb 59f 53f
3:36 9 13 mph 1015mb 59f 53f
3:30 10 13 mph 1015mb 59f 53f
3:24 8 13 mph 1015.1mb 59f 53f
3:18 10 13 mph 1015.1mb 59f 53f
3:12 9 10 mph 1015.5mb 59f 53f
3:06 8 10 mph 1015.6mb 59f 54f
3:00 7 11 mph 1015.7mb 59f 54f
2:54 11 15 mph 1015.7mb 59f 54f
2:48 13 14 mph 1016mb 59f 55f
2:42 13 14 mph 1016.1mb 59f 54f
2:36 10 13 mph 1016mb 59f 55f
2:30 11 13 mph 1016.3mb 59f 54f
2:24 9 11 mph 1016.5mb 59f 55f
2:18 9 10 mph 1016.5mb 59f 55f
2:12 9 14 mph 1016.6mb 59f 55f
2:06 13 15 mph 1017mb 59f 55f
2:00 14 17 mph 1017.2mb 59f 55f
1:54 16 20 mph 1017.1mb 59f 55f
1:48 8 11 mph 1017.2mb 59f 56f
1:42 9 10 mph 1017.3mb 59f 56f
1:36 8 9 mph 1017.2mb 59f 56f
1:30 6 7 mph 1017mb 59f 56f
1:24 6 9 mph 1017mb 59f 56f
1:18 8 9 mph 1016.8mb 59f 56f
1:12 8 10 mph 1016.7mb 59f 56f
1:06 9 10 mph 1016.9mb 59f 56f
1:00 7 11 mph 1017mb 59f 56f
12:54 10 11 mph 1017mb 59f 56f
12:48 8 9 mph 1017mb 59f 56f
12:42 8 10 mph 1017mb 59f 56f
12:36 9 10 mph 1017mb 59f 56f
12:30 10 13 mph 1017.1mb 59f 56f
12:24 8 10 mph 1017.2mb 59f 56f
12:18 10 11 mph 1017mb 59f 56f
12:12 8 9 mph 1016.7mb 59f 55f
12:06 3 6 mph 1016.7mb 59f 55f
12:00 3 6 mph 1016.8mb 59f 55f
mer. 01/18 11:54 5 6 mph 1016.9mb 59f 55f
11:48 5 7 mph 1017mb 59f 55f
11:42 6 8 mph 1017mb 59f 55f
11:36 6 8 mph 1017mb 59f 55f
11:30 6 9 mph 1016.9mb 59f 55f
11:24 8 10 mph 1017mb 59f 55f
11:18 6 10 mph 1017.2mb 59f 55f
11:12 7 9 mph 1017.2mb 59f 55f
11:06 9 13 mph 1017.2mb 59f 55f
11:00 9 10 mph 1017.2mb 59f 55f
10:54 9 11 mph 1017.4mb 59f 55f
10:48 8 11 mph 1017.6mb 59f 55f
10:42 7 10 mph 1017.7mb 59f 55f
10:36 10 14 mph 1017.7mb 59f 55f
10:30 7 10 mph 1018.1mb 59f 55f
10:24 7 9 mph 1018.3mb 59f 55f
10:18 8 10 mph 1018.3mb 59f 55f
10:12 7 10 mph 1018.3mb 59f 55f
10:06 7 10 mph 1018.4mb 59f 55f
10:00 9 11 mph 1018.4mb 59f 55f
9:54 9 11 mph 1018.4mb 59f 54f
9:48 8 14 mph 1018.3mb 59f 55f
9:42 10 14 mph 1018.2mb - -
9:36 9 11 mph 1018.2mb - -
9:30 8 10 mph 1018.6mb 59f 55f
9:24 6 7 mph 1018.9mb 59f 55f
9:18 6 7 mph 1019mb 59f 55f
9:12 7 9 mph 1018.8mb 59f 55f
9:06 7 10 mph 1018.8mb 59f 55f
9:00 9 11 mph 1018.7mb 59f 55f
8:54 7 8 mph 1018.9mb 59f 55f
8:48 9 10 mph 1019.1mb 59f 54f
8:42 8 9 mph 1019mb 59f 55f
8:36 9 10 mph 1018.8mb 59f 55f
8:30 8 9 mph 1018.8mb 59f 55f
8:24 7 9 mph 1018.9mb 59f 55f
8:18 8 11 mph 1018.8mb 59f 54f
8:12 8 13 mph 1018.6mb 59f 55f
8:06 8 14 mph 1018.6mb 59f 55f
8:00 10 14 mph 1018.6mb 59f 55f
7:54 11 14 mph 1018.6mb 59f 55f
7:48 9 14 mph - - -
7:42 10 13 mph 1018.9mb 59f 55f
7:36 8 10 mph 1019.1mb 59f 55f
7:30 8 9 mph 1019.3mb 59f 55f
7:24 7 8 mph 1019.5mb 59f 55f
7:18 6 7 mph 1019.6mb 59f 55f
7:12 3 5 mph 1019.6mb 59f 55f
7:06 2 3 mph 1019.7mb 59f 55f
7:00 1 2 mph 1019.9mb 59f 56f
6:54 2 3 mph 1020mb 59f 56f
6:48 3 8 mph 1020.1mb 59f 56f
6:42 8 10 mph 1020.4mb 59f 56f
6:36 8 9 mph 1020.6mb 59f 56f
6:30 9 10 mph 1020.6mb 59f 56f
6:24 8 10 mph 1020.6mb 59f 57f
6:18 7 9 mph 1020.6mb 59f 57f
6:12 8 9 mph 1020.5mb 59f 57f
6:06 9 10 mph 1020.5mb 59f 57f
6:00 10 11 mph 1020.6mb 59f 57f
5:54 11 15 mph 1020.6mb 59f 57f
5:48 13 17 mph - - -
5:42 15 16 mph 1020.7mb 59f 57f
5:36 15 17 mph 1020.6mb 59f 57f
5:30 15 16 mph 1020.6mb 59f -
5:24 15 16 mph 1020.5mb 59f 57f
5:18 14 16 mph - - -
5:12 13 14 mph 1020.2mb 59f 57f
5:06 14 16 mph 1020.1mb 59f 57f
5:00 15 16 mph 1020.2mb 59f 57f
4:54 14 16 mph 1020.3mb 59f 57f
4:48 14 16 mph - - -
4:42 13 14 mph 1020.1mb 59f 57f
4:36 14 16 mph 1020.2mb 59f 57f
4:30 14 15 mph 1020.1mb 59f 57f
4:24 13 14 mph 1020.1mb 59f 57f
4:18 11 15 mph 1020.1mb 59f 57f
4:12 13 15 mph 1020.1mb 59f 57f
4:06 14 16 mph 1020.2mb 59f 57f
4:00 14 15 mph 1020.4mb 59f 57f
3:54 13 14 mph 1020.4mb 59f 57f
3:48 13 14 mph - - -
3:42 13 15 mph 1020.5mb 59f 57f
3:36 14 15 mph 1020.4mb 59f 56f
3:30 11 14 mph 1020.4mb 59f -
3:24 11 15 mph 1020.5mb 59f 57f
3:18 14 15 mph 1020.6mb 59f 57f
3:12 14 15 mph 1020.7mb 59f 56f
3:06 13 15 mph 1020.7mb 59f 56f
3:00 14 15 mph 1020.8mb 59f -
2:54 13 15 mph 1020.8mb 59f 56f
2:48 14 16 mph - - -
2:42 14 15 mph 1020.8mb 59f 56f
2:36 14 15 mph 1020.7mb 59f 56f
2:30 14 15 mph 1020.6mb 59f 56f
2:24 11 13 mph 1020.3mb 59f 56f
2:18 11 13 mph 1020.2mb 59f 56f
2:12 10 11 mph 1020.1mb 59f 56f
2:06 8 10 mph 1019.9mb 59f 56f
2:00 8 9 mph 1019.8mb 59f -
1:54 8 9 mph 1019.8mb 59f 56f
1:48 8 9 mph - - -
1:42 8 9 mph 1019.8mb 59f 56f
1:36 8 9 mph 1019.8mb 59f 56f
1:30 9
mph
1020mb 59f 56f
1:24 8 9 mph 1020.2mb 59f 56f
1:18 7 9 mph 1020.3mb 59f 56f
1:12 8 9 mph 1020.3mb 59f 56f
1:06 7 8 mph 1020.3mb 59f 56f
1:00 7 8 mph 1020.4mb 59f 56f
12:54 6 7 mph 1020.4mb 59f 57f
12:48 6 7 mph 1020.4mb 59f 57f
12:42 6 7 mph 1020.5mb 58f 57f
12:36 6 7 mph 1020.5mb 58f 56f
12:30 6 7 mph 1020.6mb 58f 56f
12:24 6 7 mph 1020.7mb 58f 56f
12:18 5 6 mph 1020.7mb 58f 57f
12:12 3 5 mph 1020.7mb 58f 57f
12:06 3 6 mph 1020.9mb 58f 57f
12:00 5 6 mph 1021.1mb 58f 57f
11:54 5 6 mph 1021.1mb 58f 57f
11:48 3 6 mph 1021.2mb 58f 57f
11:42 5
mph
1021.3mb 58f 57f
11:36 3 5 mph 1021.5mb 58f 57f
11:30 2 3 mph 1021.5mb 58f 57f
11:24 2 5 mph 1021.7mb 58f 57f
11:18 5 6 mph 1021.8mb 58f 57f
11:12 5 6 mph 1021.8mb 58f 57f
11:00 5 6 mph 1022mb 58f 57f
10:54 5
mph
1022.1mb 58f 57f
10:48 3 5 mph 1022.2mb 58f 56f
10:42 3 5 mph 1022.4mb 58f 57f
10:36 3 5 mph 1022.5mb 58f 57f
10:30 3 5 mph 1022.5mb 58f 58f
10:24 5 6 mph 1022.6mb 58f 58f
10:18 6
mph
1022.7mb 58f 58f
10:12 3 5 mph 1022.9mb 58f 57f
10:06 3 5 mph 1023.1mb 58f 58f
10:00 3
mph
1023.1mb - -
9:54 2 3 mph 1023.2mb 58f 56f
9:48 5 6 mph 1023.2mb 58f 56f
9:42 5 6 mph 1023.1mb 58f 55f
9:36 5 6 mph 1023.1mb 58f 55f
9:30 5 6 mph 1023.1mb 58f 55f
9:24 3 6 mph 1023mb 58f 55f
9:18 5 8 mph 1022.8mb 58f 55f
9:12 6 8 mph 1022.6mb 58f 54f
9:06 5 7 mph 1022.7mb 58f 54f
9:00 7 9 mph 1022.8mb 58f 54f
8:54 7 8 mph 1022.9mb 58f 54f
8:48 6 10 mph 1022.8mb 58f 54f
8:42 8 9 mph 1022.8mb 58f 54f
8:36 7 9 mph 1022.8mb 58f 53f
8:30 7 9 mph 1022.6mb 58f 54f
8:24 6 8 mph 1022.6mb 58f 54f
8:18 5 6 mph 1022.6mb 58f 54f
8:12 3 6 mph 1022.5mb 58f 54f
8:06 3 6 mph 1022.6mb 58f 53f
8:00 6 7 mph 1022.5mb 58f 53f
7:54 6 7 mph 1022.5mb 58f 53f
7:48 6 8 mph 1022.6mb 58f 53f
7:42 6 7 mph 1022.5mb 58f 53f
7:36 6 7 mph 1022.4mb 58f 53f
7:30 5 6 mph 1022.5mb - -
7:24 5 7 mph 1022.6mb 58f 54f
7:18 6 8 mph 1022.5mb 58f 54f
7:12 7 9 mph 1022.4mb 58f 53f
7:06 7 8 mph 1022.4mb 58f 53f
7:00 7 8 mph 1022.3mb 58f 53f
6:54 8 9 mph 1022.2mb 58f 52f
6:48 7 9 mph 1022mb 58f 52f
6:42 8 10 mph 1021.8mb 58f 51f
6:36 7 8 mph 1021.8mb 58f 51f
6:30 7 9 mph 1021.8mb 58f 51f
6:24 8 9 mph 1021.6mb 58f 52f
6:18 7 9 mph 1021.7mb 58f 51f
6:12 7 8 mph 1021.7mb 58f 51f
6:06 8 9 mph 1021.7mb 58f 51f
6:00 7 8 mph 1021.8mb 58f -
5:54 6 8 mph 1021.8mb 58f 52f
5:48 6 9 mph 1021.7mb 58f 52f
5:42 8 9 mph 1021.7mb 58f 52f
5:36 8 9 mph 1021.6mb 58f 52f
5:30 8 10 mph 1021.4mb 58f 52f
5:24 9 10 mph 1021.3mb 58f 52f
5:18 9 11 mph 1021.3mb 58f 52f
5:12 10 11 mph 1021.2mb 58f 52f
5:06 9 10 mph 1021.1mb 58f 52f
5:00 9 10 mph 1020.9mb 58f 52f
4:54 8 11 mph 1020.8mb 58f 52f
4:48 9 11 mph 1020.9mb 58f 52f
4:42 8 11 mph 1021mb 58f 52f
4:36 10 11 mph 1021.1mb 58f 52f
4:30 9 11 mph 1021.1mb - -
4:24 9 10 mph 1021.1mb 58f 52f
4:18 8 10 mph 1021mb 58f 52f
4:12 7 10 mph 1020.9mb 59f 52f
4:06 8 10 mph 1020.9mb 59f 51f
4:00 8 10 mph 1021.2mb 59f 52f
3:54 8 9 mph 1021.5mb 59f 52f
3:48 8 9 mph 1021.5mb 59f 52f
3:42 7 9 mph 1021.5mb 59f 52f
3:36 8 10 mph 1021.4mb 59f 52f
3:30 8 9 mph - - -
3:24 8 10 mph 1021.3mb 59f 51f
3:18 9 10 mph 1021.3mb 59f 52f
3:12 7 9 mph 1021.3mb 59f 52f
3:06 8 9 mph 1021.5mb 59f 52f
3:00 7 9 mph 1021.6mb - -
2:54 8 9 mph 1021.5mb 59f 52f
2:48 9 10 mph 1021.4mb 59f 52f
2:42 7 10 mph 1021.4mb 59f 52f
2:36 8 10 mph 1021.3mb 59f 51f
2:30 8 9 mph 1021.2mb 59f 51f
2:24 7 10 mph 1021.2mb 59f 52f
2:18 9 10 mph 1021.2mb 59f 52f
2:12 9 10 mph 1021.1mb 59f 52f
2:06 9 10 mph 1020.9mb 59f 52f
2:00 9 10 mph 1020.9mb 59f 52f
1:54 10 11 mph 1020.9mb 59f 52f
1:48 9 10 mph 1020.9mb 59f 52f
1:42 8 10 mph 1020.9mb 59f 52f
1:36 9 10 mph 1021mb 59f 53f
1:30 9 10 mph 1021.1mb 59f 53f
1:24 9 10 mph 1021mb 59f 53f
1:18 8 9 mph 1021mb 59f 53f
1:12 8 10 mph 1020.9mb 59f 53f
1:06 9
mph
1020.9mb 59f 53f
1:00 7 9 mph 1020.9mb 59f 52f
12:54 8 9 mph 1020.9mb 59f 53f
12:48 8 9 mph 1021mb 59f 53f
12:42 8 9 mph 1021.2mb 59f 53f
12:36 8 9 mph 1021.2mb 59f 53f
12:30 7 8 mph - - -
12:24 6 8 mph 1021.4mb 59f 53f
12:18 7 8 mph 1021.3mb 59f 54f
12:12 6 7 mph 1021.5mb 59f 54f
12:06 6
mph
1021.7mb 59f 53f
12:00 6 7 mph 1021.8mb - -
mar. 01/17 11:54 6 8 mph 1021.7mb 59f 53f
11:48 6 7 mph 1021.6mb 59f 53f
11:42 6 7 mph 1021.7mb 59f 53f
11:36 6 8 mph 1021.6mb 59f 53f
11:30 7
mph
1021.6mb 59f 53f
11:24 6
mph
1021.6mb 59f 53f
11:18 5 6 mph 1021.7mb 59f 53f
11:12 3 5 mph 1021.6mb 59f 54f
11:06 3 5 mph 1021.6mb 59f 53f
11:00 3 5 mph 1021.6mb - -
10:54 3
mph
1021.6mb 59f 55f
10:48 3
mph
1021.6mb 59f 55f
10:42 2 6 mph 1021.6mb 59f 56f
10:36 5 7 mph 1021.6mb 59f 56f
10:30 8 9 mph 1021.6mb - -
10:24 8 9 mph 1021.6mb 59f 57f
10:18 8 9 mph 1021.5mb 59f 57f
10:12 3 7 mph 1021.4mb 59f 57f
10:06 2 3 mph 1021.4mb 59f 56f
9:54 3
mph
1021.3mb 59f -
9:48 3 6 mph 1021.2mb 59f 55f
9:42 5 6 mph 1021.2mb 59f 55f
9:36 6 7 mph 1021.2mb 59f 55f
9:30 6 7 mph 1021.2mb 59f 55f
9:24 5 6 mph 1021.1mb 59f 56f
9:18  -  2 mph 1020.9mb 59f 55f
9:12 1 2 mph 1020.8mb 59f 55f
9:06 1 3 mph 1020.7mb 59f 55f
9:00 3 5 mph 1020.8mb 59f 55f
8:54 5 6 mph 1020.8mb 59f 55f
8:48 5 6 mph 1020.7mb 59f 55f
8:42 3 5 mph 1020.6mb 59f 55f
8:36  -  1 mph 1020.5mb 59f 55f
8:30 1 5 mph 1020.3mb 59f 56f
8:24 5
mph
1020.3mb 59f 56f
8:18 2 3 mph 1020.3mb 59f 56f
8:12 3 5 mph 1020.2mb 59f 56f
8:06 3 5 mph 1020.1mb 59f 56f
8:00 3 5 mph 1020mb 59f 56f
7:54 3 5 mph 1019.9mb 59f 56f
7:48 3 5 mph 1020mb 59f 56f
7:42 3 5 mph 1019.9mb 59f 57f
7:36  -  2 mph 1020mb 59f 57f
7:30 1 2 mph 1020.1mb 59f 57f
7:24 2 3 mph 1020.1mb 59f 57f
7:18 2 7 mph 1020mb 59f 57f
7:12 5 10 mph 1020mb 59f 57f
7:06 10 13 mph 1020.1mb 59f 58f
7:00 11 14 mph 1020.2mb 59f -
6:54 10
mph
1020.3mb 59f 58f
6:48 9 10 mph 1020.2mb 59f 58f
6:42 9 11 mph 1020.3mb 59f 58f
6:36 11
mph
1020.2mb 59f 58f
6:30 10 11 mph 1020.3mb 59f 58f
6:24 10 11 mph 1020.4mb 59f 58f
6:18 9
mph
1020.3mb 59f 58f
6:12 9 10 mph 1020.3mb 59f 58f
6:06 10 11 mph 1020.3mb 59f 58f
6:00 10 11 mph 1020.3mb 59f -
5:54 9 11 mph 1020.2mb 60f 58f
5:48 8 10 mph 1020mb 60f -
5:42 9 11 mph 1020mb 60f 58f
5:36 9 10 mph 1019.8mb 60f 58f
5:30 10 11 mph 1019.7mb 60f -
5:24 9 10 mph 1019.6mb 60f 58f
5:18 9 10 mph 1019.6mb 60f 58f
5:12 10 11 mph 1019.6mb 59f 58f
5:06 11
mph
1019.6mb 59f 58f
5:00 10 11 mph 1019.6mb 59f 58f
4:54 10 11 mph 1019.6mb 59f 58f
4:48 10 11 mph 1019.5mb 59f 58f
4:42 9 10 mph 1019.4mb 60f 58f
4:36 10 11 mph 1019.2mb 60f 58f
4:30 9 10 mph 1019.2mb 60f 58f
4:24 10 11 mph 1019.3mb 60f 58f
4:18 10 13 mph 1019.4mb 60f -
4:12 13 14 mph 1019.3mb 60f 58f
4:06 11 13 mph 1019.2mb 60f 58f
4:00 10 11 mph 1019mb 60f 58f
3:54 8 9 mph 1018.9mb 60f 59f
3:48 8 11 mph 1018.9mb 60f 59f
3:42 9 10 mph 1019mb 60f 59f
3:36 9 10 mph 1018.9mb 60f 59f
3:30 8 10 mph 1019mb 60f -
3:24 8 10 mph 1019mb 59f 59f
3:18 10
mph
1019.1mb 59f 59f
3:12 9 11 mph 1019.1mb 59f 59f
3:06 8 11 mph 1019.1mb 59f 59f
3:00 9 11 mph 1019.2mb 59f 59f
2:54 10 11 mph 1019.2mb 59f 59f
2:48 9 10 mph 1019.2mb 59f 59f
2:42 8 10 mph 1019.2mb 59f 60f
2:36 10
mph
1019.2mb 59f 59f
2:30 10 11 mph 1019.3mb 59f 59f
2:24 10 11 mph 1019.3mb 59f 59f
2:18 9 10 mph 1019.3mb 59f 59f
2:12 8 9 mph 1019.2mb 59f 59f
2:06 9 10 mph 1019.2mb 59f 59f
2:00 9 10 mph 1019.2mb 59f 59f
1:54 9
mph
1019.2mb 59f 59f
1:48 8 11 mph 1019.2mb 59f 59f
1:42 10 11 mph 1019.3mb 59f 59f
1:36 10 11 mph 1019.4mb 59f 59f
1:30 10 11 mph 1019.4mb 59f 59f
1:24 10 11 mph 1019.5mb 59f 59f
1:18 10 11 mph 1019.5mb 59f 59f
1:12 10 11 mph 1019.4mb 59f 59f
1:06 10 11 mph 1019.5mb 59f 59f
1:00 10 11 mph 1019.5mb 59f 59f
12:54 11 13 mph 1019.5mb 59f 59f
12:48 11
mph
1019.5mb 59f 59f
12:42 10
mph
1019.4mb 59f 59f
12:36 9 10 mph 1019.4mb 59f 59f
12:30 9 10 mph 1019.3mb 59f 59f
12:24 9
mph
1019.3mb 59f 59f
12:18 8 9 mph 1019.2mb 59f 59f
12:12 8
mph
1019.3mb 59f 59f
12:06 8 9 mph 1019.4mb 59f 59f
12:00 9
mph
1019.4mb 58f 59f
11:54 8
mph
1019.4mb 58f 59f
11:48 7 8 mph 1019.5mb 58f 60f
11:42 7 8 mph 1019.5mb 58f 60f
11:36 7
mph
1019.6mb 58f 60f
11:30 7
mph
1019.5mb 58f 60f
11:24 6 7 mph 1019.6mb 58f 61f
11:18 6 7 mph 1019.7mb 58f 61f
11:12 6
mph
1019.8mb 58f 61f
11:06 3 7 mph 1019.9mb 58f 62f
11:00 5 7 mph 1020mb 58f 63f
10:54 6 8 mph 1020.1mb 58f 63f
10:48 7
mph
1020.1mb 58f 62f
10:42 6 8 mph 1020.1mb 58f 62f
10:36 7 10 mph 1020.2mb 58f 61f
10:30 6 9 mph 1020.2mb 58f 61f
10:24 6 10 mph 1020.1mb 58f 61f
10:18 8 11 mph 1020.1mb 58f 60f
10:12 7 9 mph 1020.1mb 58f 60f
10:06 6 9 mph 1020.1mb 58f 60f
10:00 7 9 mph 1020.2mb 58f 60f
9:54 9 13 mph 1020.2mb 58f 60f
9:48 11 14 mph 1020.1mb 58f 59f
9:42 8 10 mph 1020.1mb 58f 59f
9:36 8 10 mph 1020.1mb 58f 59f
9:30 10 14 mph 1020.1mb 58f 59f
9:24 9 13 mph 1020mb 58f 59f
9:18 7 11 mph 1020.1mb 58f 59f
9:12 7 10 mph 1020.1mb 58f 58f
9:06 9 11 mph 1020mb 58f 58f
9:00 7 10 mph 1020mb 58f 58f
8:54 7 10 mph 1020.1mb 58f 57f
8:48 7 9 mph 1020.1mb 58f 57f
8:42 7 9 mph 1020.1mb 58f 57f
8:36 7 9 mph 1020.1mb 58f 56f
8:30 7 9 mph 1020mb 58f 56f
8:24 6 7 mph 1019.9mb 58f 55f
8:18 6 8 mph 1019.9mb 58f 55f
8:12 7 8 mph 1019.9mb 58f 54f
8:06 6 8 mph 1019.9mb 58f 53f
8:00 7 8 mph 1020mb 58f 54f
7:54 8 9 mph 1020mb 58f 53f
7:48 6 8 mph 1019.9mb - -
7:42 6 8 mph 1019.8mb 58f 52f
7:36 7 9 mph 1019.7mb 58f 51f
7:30 7 9 mph 1019.6mb 58f 51f
7:24 7 9 mph 1019.5mb 58f 51f
7:18 6 8 mph 1019.5mb 58f 51f
7:12 5 9 mph 1019.4mb 58f 50f
7:06 7 9 mph 1019.3mb 58f 50f
7:00 6 9 mph 1019.2mb 58f -
6:54 7 9 mph 1019.1mb 58f 51f
6:48 7 9 mph 1019mb 58f 50f
6:42 6 8 mph 1018.9mb 58f 51f
6:36 6 8 mph 1018.9mb 58f 55f
6:30 6 7 mph 1018.8mb 58f 53f
6:24 5 6 mph 1018.8mb 58f 53f
6:18 5 6 mph 1018.7mb 58f 54f
6:12 5 6 mph 1018.7mb 58f 53f
6:06 3 6 mph 1018.6mb 58f 52f
6:00 3 5 mph 1018.6mb 58f 53f
5:54 3 5 mph 1018.5mb 58f 53f
5:48 3
mph
1018.5mb 58f 52f
5:42 2
mph
1018.5mb 58f 52f
5:36 2
mph
1018.5mb 58f 52f
5:30 2
mph
1018.4mb 58f 51f
5:24 1 2 mph 1018.4mb 58f 51f
5:18  -  2 mph 1018.4mb 58f 51f
5:12  -  1 mph 1018.5mb 58f 52f
5:06 1 3 mph 1018.5mb 58f 52f
5:00 1 3 mph 1018.5mb 58f 51f
4:54 3 5 mph 1018.5mb 58f 51f
4:48 2 3 mph 1018.4mb 58f 52f
4:42 3 6 mph 1018.3mb 59f 52f